Portada
METAR-TAF:

METAR-TAF

Aeroports :

Pontianak, Indonèsia

latitud: 00-09S, longitud: 109-24E, altitud: 3 m

Observació

L'informe es va fer fa 2 hores i 42 minuts, a les 12:00 UTC
Vent calma
Temperatura 26°C
Humitat 89%
Pressió 1009 hPa
Visibilitat: 6000 m
Cel ennuvolat a una alçada de 1200 ft

METAR: WIOO 261200Z 00000KT 6000 BKN012 26/24 Q1009 NOSIG

Hora: 21:42 (14:42 UTC)


TAF: manca

Observacions i pronòstics meteorològics de més de 4000 aeroports (METAR i TAF).

Les estacions disponibles són els punts grocs i vermells al mapa.

Posi el ratolí al punt desitjat per veure el nom de l'estació.

Feu clic per veure les observacions i els pronòstics meteorològics.

Per canviar el mapa: feu clic els botons verds amb una creu de color negre per apropar; al botó verd amb un guió per allunyar la imatge; o en les fletxes verdes per a mapes adjacents.


METAR-TAF: